Time;durP1;ratioP1;P1;durP2;ratioP2;P2;SDS_P1;SDS_P2;PMS_P1;PMS_P2;Temp;Humidity;BMP_temperature;BMP_pressure;BME280_temperature;BME280_humidity;BME280_pressure;Samples;Min_cycle;Max_cycle;Signal;HPM_P1;HPM_P2
2024/01/14 00:00:33;;;;;;;12.10;7.68;;;-0.80;63.80;;;;;;5010351;28;115223;-83
2024/01/14 00:03:01;;;;;;;13.00;7.95;;;-0.80;63.80;;;;;;5030372;28;114575;-83
2024/01/14 00:05:28;;;;;;;12.00;7.35;;;-0.80;63.80;;;;;;5013308;28;114379;-83
2024/01/14 00:07:56;;;;;;;11.98;7.45;;;-0.80;63.90;;;;;;5026724;28;116667;-83
2024/01/14 00:10:23;;;;;;;13.25;7.35;;;-0.80;63.90;;;;;;5009779;28;114695;-83
2024/01/14 00:12:51;;;;;;;11.98;6.95;;;-0.80;63.90;;;;;;5010716;28;114436;-83
2024/01/14 00:15:19;;;;;;;12.55;7.47;;;-0.80;63.90;;;;;;5011102;28;114497;-83
2024/01/14 00:17:46;;;;;;;11.23;6.95;;;-0.80;64.00;;;;;;5010020;28;116412;-83
2024/01/14 00:20:14;;;;;;;12.65;7.75;;;-0.80;64.00;;;;;;5009908;28;116137;-83
2024/01/14 00:22:41;;;;;;;11.38;7.22;;;-0.80;64.00;;;;;;5027739;28;114274;-83
2024/01/14 00:25:11;;;;;;;13.15;8.32;;;-0.80;64.10;;;;;;4993757;28;114482;-83
2024/01/14 00:27:39;;;;;;;15.57;7.43;;;-0.80;64.10;;;;;;5027720;28;115079;-83
2024/01/14 00:30:06;;;;;;;12.63;8.00;;;-0.80;64.10;;;;;;5009636;28;115162;-83
2024/01/14 00:32:34;;;;;;;13.35;7.93;;;-0.80;64.20;;;;;;5010839;28;114197;-83
2024/01/14 00:35:01;;;;;;;13.75;7.95;;;-0.80;64.20;;;;;;5011017;28;114259;-84
2024/01/14 00:37:29;;;;;;;15.07;8.45;;;-0.80;64.20;;;;;;5027695;28;116249;-83
2024/01/14 00:39:56;;;;;;;14.07;7.80;;;-0.80;64.20;;;;;;5026668;28;114568;-82
2024/01/14 00:42:24;;;;;;;11.80;7.55;;;-0.80;64.20;;;;;;5028583;28;114437;-83
2024/01/14 00:44:51;;;;;;;14.43;7.47;;;-0.80;64.20;;;;;;5027288;28;115510;-82
2024/01/14 00:47:18;;;;;;;12.25;7.70;;;-0.80;64.20;;;;;;5027304;28;115015;-82
2024/01/14 00:49:47;;;;;;;13.68;8.27;;;-0.80;64.20;;;;;;5009582;28;115262;-83
2024/01/14 00:52:14;;;;;;;14.25;8.02;;;-0.80;64.20;;;;;;5010328;28;114487;-83
2024/01/14 00:54:42;;;;;;;11.52;7.88;;;-0.80;64.30;;;;;;5028574;28;114519;-83
2024/01/14 00:57:10;;;;;;;11.43;7.45;;;-0.80;64.30;;;;;;5009433;28;115695;-83
2024/01/14 00:59:37;;;;;;;15.93;8.18;;;-0.90;64.30;;;;;;5027363;28;114671;-83
2024/01/14 01:02:05;;;;;;;12.95;7.90;;;-0.90;64.40;;;;;;5027217;28;114588;-83
2024/01/14 01:04:32;;;;;;;13.52;8.15;;;-0.90;64.40;;;;;;5010975;28;114681;-83
2024/01/14 01:06:59;;;;;;;13.88;8.45;;;-0.90;64.40;;;;;;5021143;28;114788;-84
2024/01/14 01:09:27;;;;;;;13.27;7.75;;;-0.90;64.50;;;;;;4980845;28;114320;-83
2024/01/14 01:11:54;;;;;;;13.73;7.88;;;-0.90;64.50;;;;;;4993597;28;114116;-83
2024/01/14 01:14:21;;;;;;;14.23;8.57;;;-0.80;64.60;;;;;;4993726;28;115411;-85
2024/01/14 01:16:49;;;;;;;12.68;8.23;;;-0.80;64.60;;;;;;5009349;28;115128;-83
2024/01/14 01:19:17;;;;;;;16.95;8.57;;;-0.80;64.60;;;;;;5009443;28;114705;-83
2024/01/14 01:21:44;;;;;;;14.00;7.72;;;-0.80;64.60;;;;;;5026695;28;114326;-83
2024/01/14 01:24:14;;;;;;;13.15;8.23;;;-0.80;64.60;;;;;;4993333;28;114655;-83
2024/01/14 01:26:42;;;;;;;14.90;8.48;;;-0.80;64.70;;;;;;5026629;28;117762;-83
2024/01/14 01:29:09;;;;;;;14.63;9.10;;;-0.80;64.70;;;;;;4992472;28;116101;-83
2024/01/14 01:31:36;;;;;;;13.43;8.43;;;-0.80;64.80;;;;;;4993667;28;114547;-83
2024/01/14 01:34:15;;;;;;;13.15;8.40;;;-0.80;64.80;;;;;;5027804;28;114322;-83
2024/01/14 01:36:43;;;;;;;13.20;8.07;;;-0.70;64.90;;;;;;5009945;28;115069;-83
2024/01/14 01:39:10;;;;;;;12.35;7.70;;;-0.70;64.90;;;;;;4992598;28;115095;-83
2024/01/14 01:41:37;;;;;;;13.27;7.72;;;-0.70;64.90;;;;;;5027617;28;114252;-83
2024/01/14 01:44:04;;;;;;;12.48;7.30;;;-0.70;64.90;;;;;;4994919;28;114664;-83
2024/01/14 01:46:34;;;;;;;11.77;7.32;;;-0.70;64.90;;;;;;5026772;28;114997;-83
2024/01/14 01:49:02;;;;;;;13.52;8.20;;;-0.70;64.90;;;;;;5026621;28;115190;-83
2024/01/14 01:51:30;;;;;;;12.77;7.60;;;-0.70;64.90;;;;;;5009964;28;114368;-83
2024/01/14 01:53:57;;;;;;;12.20;7.90;;;-0.70;64.90;;;;;;5028148;28;114288;-82
2024/01/14 01:56:25;;;;;;;12.73;7.47;;;-0.70;64.90;;;;;;4992459;28;115037;-83
2024/01/14 01:58:52;;;;;;;10.85;6.43;;;-0.70;64.90;;;;;;5008856;28;114579;-82
2024/01/14 02:01:21;;;;;;;13.65;7.60;;;-0.80;64.90;;;;;;4960655;28;114662;-82
2024/01/14 02:03:50;;;;;;;11.57;6.78;;;-0.80;64.90;;;;;;5009777;28;114430;-82
2024/01/14 02:06:18;;;;;;;13.60;7.50;;;-0.80;65.00;;;;;;5009583;28;115182;-82
2024/01/14 02:08:45;;;;;;;12.80;7.07;;;-0.80;65.00;;;;;;5008703;28;114660;-82
2024/01/14 02:11:13;;;;;;;11.30;6.88;;;-0.80;65.00;;;;;;4960541;28;114231;-83
2024/01/14 02:13:41;;;;;;;11.93;7.47;;;-0.80;65.00;;;;;;4960453;28;114491;-83
2024/01/14 02:16:08;;;;;;;10.68;7.35;;;-0.80;65.10;;;;;;5026422;28;115039;-83
2024/01/14 02:18:35;;;;;;;13.00;7.93;;;-0.80;65.10;;;;;;5026779;28;114715;-83
2024/01/14 02:21:03;;;;;;;12.27;7.78;;;-0.80;65.20;;;;;;5027492;28;114505;-83
2024/01/14 02:23:33;;;;;;;14.25;7.60;;;-0.80;65.20;;;;;;5009707;28;114188;-82
2024/01/14 02:26:00;;;;;;;10.73;6.60;;;-0.70;65.30;;;;;;4991059;28;115105;-82
2024/01/14 02:28:28;;;;;;;9.55;6.10;;;-0.80;65.20;;;;;;4991543;28;116265;-82
2024/01/14 02:30:55;;;;;;;11.10;6.78;;;-0.80;65.30;;;;;;4992581;28;114475;-82
2024/01/14 02:33:23;;;;;;;10.88;7.38;;;-0.70;65.30;;;;;;4995938;28;114736;-82
2024/01/14 02:35:51;;;;;;;11.75;7.13;;;-0.70;65.30;;;;;;4995317;28;116294;-82
2024/01/14 02:38:18;;;;;;;12.43;7.28;;;-0.70;65.40;;;;;;5029612;28;114571;-82
2024/01/14 02:40:46;;;;;;;13.90;7.82;;;-0.70;65.40;;;;;;5030748;28;114331;-83
2024/01/14 02:43:13;;;;;;;11.43;7.22;;;-0.70;65.40;;;;;;5030977;28;114444;-82
2024/01/14 02:45:41;;;;;;;12.25;6.90;;;-0.60;65.50;;;;;;5029395;28;115393;-82
2024/01/14 02:48:08;;;;;;;12.75;6.88;;;-0.60;65.50;;;;;;5029550;28;114716;-82
2024/01/14 02:50:43;;;;;;;12.30;6.88;;;-0.70;65.50;;;;;;5029842;28;114564;-82
2024/01/14 02:53:11;;;;;;;10.27;6.07;;;-0.60;65.60;;;;;;5031377;28;114348;-83
2024/01/14 02:55:39;;;;;;;12.65;6.72;;;-0.60;65.60;;;;;;5038579;28;115650;-82
2024/01/14 02:58:06;;;;;;;12.20;6.85;;;-0.60;65.60;;;;;;5034270;28;115259;-82
2024/01/14 03:00:34;;;;;;;11.75;6.18;;;-0.60;65.60;;;;;;5045820;27;114380;-82
2024/01/14 03:03:01;;;;;;;10.85;6.65;;;-0.60;65.70;;;;;;5051140;27;114336;-82
2024/01/14 03:05:30;;;;;;;12.20;7.13;;;-0.60;65.80;;;;;;5050012;27;115077;-83
2024/01/14 03:07:58;;;;;;;11.23;6.75;;;-0.50;65.80;;;;;;5030707;27;114966;-83
2024/01/14 03:10:25;;;;;;;12.27;7.25;;;-0.50;65.80;;;;;;5049070;27;114320;-82
2024/01/14 03:12:54;;;;;;;12.18;6.85;;;-0.40;65.80;;;;;;5050166;27;114417;-82
2024/01/14 03:15:21;;;;;;;13.13;7.50;;;-0.50;65.70;;;;;;5049027;27;115126;-82
2024/01/14 03:17:48;;;;;;;10.77;6.85;;;-0.50;65.80;;;;;;5049521;27;114633;-82
2024/01/14 03:20:16;;;;;;;11.95;7.40;;;-0.50;65.80;;;;;;5049102;27;114524;-82
2024/01/14 03:22:44;;;;;;;13.15;6.80;;;-0.40;65.80;;;;;;5054113;27;114213;-82
2024/01/14 03:25:11;;;;;;;13.68;7.63;;;-0.40;65.80;;;;;;5048681;27;115062;-81
2024/01/14 03:27:38;;;;;;;14.05;7.75;;;-0.40;65.70;;;;;;5048884;27;114827;-81
2024/01/14 03:30:07;;;;;;;10.63;6.50;;;-0.40;65.80;;;;;;5050041;27;114358;-82
2024/01/14 03:32:35;;;;;;;11.88;6.85;;;-0.40;65.80;;;;;;5032335;27;114380;-81
2024/01/14 03:35:03;;;;;;;12.80;7.18;;;-0.40;65.80;;;;;;5049425;27;115557;-81
2024/01/14 03:37:30;;;;;;;10.77;6.50;;;-0.40;65.90;;;;;;5030908;27;115136;-82
2024/01/14 03:39:57;;;;;;;10.60;6.45;;;-0.40;65.90;;;;;;5048581;27;114422;-82
2024/01/14 03:42:24;;;;;;;12.93;6.53;;;-0.40;65.90;;;;;;5050104;27;114387;-83
2024/01/14 03:44:52;;;;;;;11.52;6.45;;;-0.40;65.80;;;;;;5030908;27;115157;-83
2024/01/14 03:47:20;;;;;;;13.57;6.53;;;-0.30;65.80;;;;;;5047632;27;114781;-82
2024/01/14 03:49:47;;;;;;;13.25;6.75;;;-0.30;65.90;;;;;;5015506;27;114460;-83
2024/01/14 03:52:15;;;;;;;11.07;6.80;;;-0.30;65.90;;;;;;5049873;27;114391;-83
2024/01/14 03:54:42;;;;;;;11.65;5.93;;;-0.30;65.80;;;;;;5048743;27;115045;-82
2024/01/14 03:57:09;;;;;;;10.32;6.20;;;-0.30;65.80;;;;;;5047495;27;115218;-82
2024/01/14 03:59:38;;;;;;;10.60;6.22;;;-0.30;65.70;;;;;;5031630;27;114336;-82
2024/01/14 04:02:06;;;;;;;12.82;6.45;;;-0.30;65.80;;;;;;5050112;27;114412;-82
2024/01/14 04:04:33;;;;;;;11.65;6.05;;;-0.30;65.80;;;;;;5030320;27;117125;-82
2024/01/14 04:07:01;;;;;;;9.88;6.15;;;-0.30;65.70;;;;;;5048759;27;115762;-81
2024/01/14 04:09:28;;;;;;;10.68;6.47;;;-0.30;65.70;;;;;;5049639;27;114339;-82
2024/01/14 04:11:56;;;;;;;10.75;6.20;;;-0.30;65.70;;;;;;5049597;27;114228;-82
2024/01/14 04:14:24;;;;;;;12.68;6.20;;;-0.30;65.80;;;;;;5048808;27;115385;-82
2024/01/14 04:16:51;;;;;;;10.20;6.03;;;-0.30;65.80;;;;;;5048626;27;114734;-82
2024/01/14 04:19:19;;;;;;;8.82;5.40;;;-0.40;65.70;;;;;;5049543;27;114477;-82
2024/01/14 04:21:46;;;;;;;11.68;6.10;;;-0.30;65.80;;;;;;5050003;27;114557;-81
2024/01/14 04:24:13;;;;;;;10.95;6.20;;;-0.30;65.80;;;;;;5047796;27;115115;-82
2024/01/14 04:26:41;;;;;;;11.32;6.68;;;-0.30;65.90;;;;;;5046223;27;117134;-81
2024/01/14 04:29:08;;;;;;;9.32;5.97;;;-0.30;65.80;;;;;;5031074;27;114383;-81
2024/01/14 04:31:35;;;;;;;9.82;6.43;;;-0.30;65.80;;;;;;5030662;27;114841;-82
2024/01/14 04:34:03;;;;;;;10.73;6.22;;;-0.30;65.80;;;;;;5030425;27;116571;-82
2024/01/14 04:36:31;;;;;;;9.45;6.50;;;-0.30;65.80;;;;;;5046662;27;114585;-82
2024/01/14 04:38:59;;;;;;;9.48;6.07;;;-0.30;65.80;;;;;;5030920;27;114752;-82
2024/01/14 04:41:27;;;;;;;11.30;6.47;;;-0.30;65.90;;;;;;5048043;27;114341;-82
2024/01/14 04:43:54;;;;;;;11.68;6.35;;;-0.40;65.90;;;;;;5030156;27;116480;-82
2024/01/14 04:46:21;;;;;;;11.73;6.50;;;-0.30;66.00;;;;;;5050975;27;114592;-82
2024/01/14 04:48:50;;;;;;;11.88;6.53;;;-0.30;66.00;;;;;;5073934;27;114078;-82
2024/01/14 04:51:18;;;;;;;11.00;6.13;;;-0.30;66.00;;;;;;5049696;27;114262;-83
2024/01/14 04:53:46;;;;;;;12.93;7.32;;;-0.40;66.00;;;;;;5047579;27;115041;-83
2024/01/14 04:56:13;;;;;;;13.05;7.38;;;-0.30;66.00;;;;;;5029198;27;117633;-83
2024/01/14 04:58:41;;;;;;;14.25;6.68;;;-0.30;65.90;;;;;;5048055;27;114412;-83
2024/01/14 05:01:08;;;;;;;9.95;6.40;;;-0.30;65.90;;;;;;5058993;27;114630;-83
2024/01/14 05:03:35;;;;;;;10.65;6.30;;;-0.40;65.90;;;;;;5051797;27;115642;-82
2024/01/14 05:06:03;;;;;;;11.80;6.45;;;-0.40;66.00;;;;;;5029775;27;117277;-82
2024/01/14 05:08:34;;;;;;;12.77;7.30;;;-0.40;66.00;;;;;;5031275;27;114291;-82
2024/01/14 05:11:01;;;;;;;12.38;7.00;;;-0.40;66.00;;;;;;5030954;27;114660;-83
2024/01/14 05:13:29;;;;;;;10.50;6.15;;;-0.40;66.00;;;;;;5046009;27;116474;-82
2024/01/14 05:15:56;;;;;;;11.52;6.10;;;-0.40;66.00;;;;;;5029372;27;114739;-82
2024/01/14 05:18:23;;;;;;;12.57;6.95;;;-0.40;66.10;;;;;;5030621;27;114403;-83
2024/01/14 05:20:52;;;;;;;11.27;6.47;;;-0.30;66.10;;;;;;5030764;27;114835;-83
2024/01/14 05:23:21;;;;;;;12.70;6.80;;;-0.40;66.20;;;;;;5047530;27;115188;-83
2024/01/14 05:25:48;;;;;;;12.20;6.28;;;-0.40;66.20;;;;;;5028357;27;116236;-82
2024/01/14 05:28:16;;;;;;;9.98;6.13;;;-0.30;66.20;;;;;;5047201;27;114134;-82
2024/01/14 05:30:43;;;;;;;13.05;6.50;;;-0.30;66.20;;;;;;5029935;27;114536;-82
2024/01/14 05:33:10;;;;;;;11.35;6.82;;;-0.40;66.20;;;;;;5047388;27;116520;-82
2024/01/14 05:35:38;;;;;;;11.00;6.43;;;-0.40;66.20;;;;;;5047373;27;114579;-83
2024/01/14 05:38:05;;;;;;;13.23;7.22;;;-0.30;66.30;;;;;;5012810;27;114276;-83
2024/01/14 05:40:32;;;;;;;11.45;6.35;;;-0.30;66.20;;;;;;5048750;27;114337;-82
2024/01/14 05:42:59;;;;;;;11.35;6.60;;;-0.30;66.20;;;;;;5046745;27;115709;-82
2024/01/14 05:45:27;;;;;;;11.98;7.07;;;-0.30;66.30;;;;;;5029178;27;114669;-82
2024/01/14 05:47:54;;;;;;;13.38;7.03;;;-0.30;66.30;;;;;;5030039;27;114427;-82
2024/01/14 05:50:22;;;;;;;12.63;7.10;;;-0.30;66.20;;;;;;5048206;27;114302;-82
2024/01/14 05:52:49;;;;;;;11.02;7.15;;;-0.30;66.20;;;;;;5028900;27;115097;-82
2024/01/14 05:55:16;;;;;;;14.27;7.43;;;-0.40;66.20;;;;;;5045276;27;115179;-82
2024/01/14 05:57:44;;;;;;;12.77;7.88;;;-0.30;66.20;;;;;;5029716;27;114806;-82
2024/01/14 06:00:13;;;;;;;13.10;7.03;;;-0.30;66.20;;;;;;5047379;27;114653;-82
2024/01/14 06:02:41;;;;;;;13.15;7.43;;;-0.30;66.20;;;;;;5048192;27;115107;-83
2024/01/14 06:05:08;;;;;;;11.18;7.22;;;-0.40;66.20;;;;;;5045804;27;114662;-83
2024/01/14 06:07:36;;;;;;;13.10;7.13;;;-0.40;66.20;;;;;;5031044;27;114368;-82
2024/01/14 06:10:04;;;;;;;13.45;8.32;;;-0.40;66.20;;;;;;5015721;27;114598;-83
2024/01/14 06:12:32;;;;;;;15.77;7.63;;;-0.40;66.30;;;;;;5049339;27;115124;-82
2024/01/14 06:14:59;;;;;;;12.80;7.25;;;-0.40;66.30;;;;;;5031055;27;115682;-82
2024/01/14 06:17:27;;;;;;;11.45;6.82;;;-0.40;66.40;;;;;;5033337;27;114390;-83
2024/01/14 06:19:54;;;;;;;12.73;7.22;;;-0.40;66.30;;;;;;5051469;27;114418;-84
2024/01/14 06:22:21;;;;;;;13.60;7.18;;;-0.40;66.40;;;;;;5032144;27;116574;-83
2024/01/14 06:24:49;;;;;;;12.35;6.53;;;-0.40;66.30;;;;;;5049808;27;116250;-82
2024/01/14 06:27:16;;;;;;;13.60;7.35;;;-0.40;66.30;;;;;;5051337;27;114365;-82
2024/01/14 06:29:43;;;;;;;16.35;6.95;;;-0.40;66.40;;;;;;5033548;27;114385;-83
2024/01/14 06:32:11;;;;;;;15.43;8.05;;;-0.40;66.40;;;;;;5014409;27;117292;-83
2024/01/14 06:34:38;;;;;;;13.38;6.93;;;-0.50;66.40;;;;;;5049819;27;114622;-82
2024/01/14 06:37:05;;;;;;;13.25;7.40;;;-0.40;66.50;;;;;;5038165;27;114829;-84
2024/01/14 06:39:33;;;;;;;13.10;7.47;;;-0.50;66.50;;;;;;5039878;27;114490;-81
2024/01/14 06:42:01;;;;;;;16.13;8.75;;;-0.40;66.50;;;;;;5016683;27;117412;-84
2024/01/14 06:44:28;;;;;;;12.18;6.03;;;-0.50;66.60;;;;;;5040866;28;114172;-82
2024/01/14 06:46:56;;;;;;;11.68;7.40;;;-0.50;66.60;;;;;;5045616;27;114492;-83
2024/01/14 06:49:23;;;;;;;11.38;6.25;;;-0.40;66.70;;;;;;5025290;27;114912;-82
2024/01/14 06:51:51;;;;;;;14.20;7.85;;;-0.50;66.70;;;;;;5038819;27;115155;-82
2024/01/14 06:54:18;;;;;;;14.57;8.50;;;-0.40;66.70;;;;;;5029529;27;114944;-83
2024/01/14 06:56:48;;;;;;;13.98;7.82;;;-0.50;66.70;;;;;;5029357;28;114407;-83
2024/01/14 06:59:26;;;;;;;12.07;6.18;;;-0.40;66.80;;;;;;5028055;28;114448;-82
2024/01/14 07:01:53;;;;;;;13.45;6.90;;;-0.40;66.90;;;;;;5028526;28;115126;-82
2024/01/14 07:04:20;;;;;;;14.07;7.05;;;-0.40;66.90;;;;;;5009741;28;118100;-82
2024/01/14 07:06:48;;;;;;;12.80;6.82;;;-0.40;66.90;;;;;;5029431;28;114392;-82
2024/01/14 07:09:15;;;;;;;11.77;6.57;;;-0.40;67.00;;;;;;5028920;28;114434;-83
2024/01/14 07:11:43;;;;;;;11.13;6.80;;;-0.50;67.00;;;;;;4993597;28;118175;-83
2024/01/14 07:14:10;;;;;;;11.52;6.07;;;-0.50;67.00;;;;;;5011598;27;117460;-83
2024/01/14 07:16:37;;;;;;;13.60;6.95;;;-0.40;67.10;;;;;;5011632;28;115025;-83
2024/01/14 07:19:04;;;;;;;11.70;7.13;;;-0.40;67.10;;;;;;5028919;28;114847;-83
2024/01/14 07:21:32;;;;;;;13.95;7.63;;;-0.40;67.20;;;;;;5009682;28;116410;-83
2024/01/14 07:24:00;;;;;;;13.57;8.00;;;-0.40;67.30;;;;;;5032838;27;114650;-83
2024/01/14 07:26:28;;;;;;;13.60;7.68;;;-0.40;67.30;;;;;;5035552;27;114553;-83
2024/01/14 07:28:55;;;;;;;11.98;7.18;;;-0.40;67.40;;;;;;5038995;27;114567;-83
2024/01/14 07:31:27;;;;;;;15.05;8.38;;;-0.40;67.50;;;;;;5021615;28;115192;-82
2024/01/14 07:33:55;;;;;;;14.77;6.75;;;-0.40;67.60;;;;;;4988408;27;114815;-83
2024/01/14 07:36:22;;;;;;;14.77;7.85;;;-0.40;67.50;;;;;;5037522;27;114279;-82
2024/01/14 07:38:51;;;;;;;12.80;7.05;;;-0.40;67.60;;;;;;5018593;27;114556;-83
2024/01/14 07:41:18;;;;;;;13.15;7.22;;;-0.40;67.50;;;;;;5029424;27;115050;-83
2024/01/14 07:43:46;;;;;;;10.90;6.28;;;-0.40;67.50;;;;;;5029603;27;114985;-82
2024/01/14 07:46:18;;;;;;;12.73;6.63;;;-0.30;67.40;;;;;;5030524;27;114364;-81
2024/01/14 07:48:46;;;;;;;12.70;7.05;;;-0.30;67.30;;;;;;5042435;27;114734;-83
2024/01/14 07:51:13;;;;;;;11.18;7.30;;;-0.30;67.30;;;;;;5016058;27;118533;-85
2024/01/14 07:53:41;;;;;;;11.27;6.30;;;-0.30;67.30;;;;;;5017432;28;115282;-83
2024/01/14 07:56:09;;;;;;;11.18;6.00;;;-0.30;67.30;;;;;;5012757;27;114661;-83
2024/01/14 07:58:36;;;;;;;12.77;6.93;;;-0.20;67.10;;;;;;5046159;27;114810;-83
2024/01/14 08:01:06;;;;;;;12.77;6.78;;;-0.30;67.00;;;;;;5002024;27;117666;-82
2024/01/14 08:03:34;;;;;;;11.30;6.68;;;-0.20;67.10;;;;;;5033665;27;115857;-83
2024/01/14 08:06:02;;;;;;;14.52;7.22;;;-0.10;67.00;;;;;;5014271;27;114842;-82
2024/01/14 08:08:32;;;;;;;11.35;6.55;;;-0.10;67.00;;;;;;5048987;27;114377;-82
2024/01/14 08:11:07;;;;;;;12.95;7.18;;;-0.20;66.80;;;;;;5028196;27;115014;-83
2024/01/14 08:13:34;;;;;;;14.18;7.00;;;-0.10;66.80;;;;;;5029154;27;117808;-83
2024/01/14 08:16:01;;;;;;;13.45;7.30;;;-0.10;66.80;;;;;;5048250;27;114555;-82
2024/01/14 08:18:30;;;;;;;12.82;6.93;;;0.00;66.70;;;;;;5030551;27;114523;-81
2024/01/14 08:21:00;;;;;;;14.10;7.50;;;0.00;66.70;;;;;;5038025;27;116711;-81
2024/01/14 08:23:34;;;;;;;13.10;6.70;;;0.10;66.60;;;;;;5028383;28;114670;-83
2024/01/14 08:26:02;;;;;;;14.67;8.40;;;0.10;66.50;;;;;;5028293;28;114298;-82
2024/01/14 08:28:31;;;;;;;14.95;7.18;;;0.10;66.30;;;;;;5029837;28;114413;-83
2024/01/14 08:31:00;;;;;;;13.80;7.97;;;0.10;66.20;;;;;;5009515;28;115448;-82
2024/01/14 08:33:28;;;;;;;12.30;6.63;;;0.10;66.20;;;;;;5028166;28;114665;-83
2024/01/14 08:35:59;;;;;;;11.52;6.63;;;0.10;66.10;;;;;;5011570;28;114345;-83
2024/01/14 08:38:26;;;;;;;10.73;6.38;;;0.10;66.10;;;;;;5051727;28;114261;-84
2024/01/14 08:40:59;;;;;;;12.05;7.07;;;0.10;66.00;;;;;;5037492;28;114300;-84
2024/01/14 08:43:27;;;;;;;16.08;8.23;;;0.10;66.00;;;;;;4997619;27;118490;-82
2024/01/14 08:45:55;;;;;;;22.02;10.65;;;0.10;65.90;;;;;;5021328;27;114429;-83
2024/01/14 08:48:22;;;;;;;14.13;8.35;;;0.10;65.90;;;;;;5028355;27;114415;-83
2024/01/14 08:50:50;;;;;;;16.30;9.35;;;0.10;65.70;;;;;;5025494;28;118230;-83
2024/01/14 08:53:17;;;;;;;16.27;8.80;;;0.10;65.70;;;;;;5009779;28;117539;-83
2024/01/14 08:55:47;;;;;;;14.25;7.10;;;0.10;65.80;;;;;;5027218;28;114692;-83
2024/01/14 08:58:17;;;;;;;13.98;7.13;;;0.10;65.60;;;;;;5011566;27;114677;-83
2024/01/14 09:00:45;;;;;;;11.07;6.40;;;0.10;65.70;;;;;;5021313;27;115374;-82
2024/01/14 09:03:12;;;;;;;15.18;7.65;;;0.20;65.60;;;;;;5046601;27;115017;-83
2024/01/14 09:05:40;;;;;;;13.02;7.10;;;0.20;65.60;;;;;;5046631;27;114332;-82
2024/01/14 09:08:08;;;;;;;13.07;6.95;;;0.30;65.50;;;;;;5027876;27;114456;-83
2024/01/14 09:10:35;;;;;;;14.18;6.75;;;0.30;65.50;;;;;;5017182;27;115220;-83
2024/01/14 09:13:03;;;;;;;12.45;7.30;;;0.30;65.40;;;;;;4999962;27;115025;-83
2024/01/14 09:15:30;;;;;;;11.55;7.07;;;0.30;65.30;;;;;;4992355;28;114666;-83
2024/01/14 09:17:58;;;;;;;12.52;7.22;;;0.30;65.10;;;;;;5010353;28;114274;-84
2024/01/14 09:20:27;;;;;;;11.90;7.63;;;0.40;65.20;;;;;;5023374;27;119225;-82
2024/01/14 09:22:55;;;;;;;12.23;7.30;;;0.40;65.30;;;;;;5026724;27;114999;-82
2024/01/14 09:25:22;;;;;;;14.20;6.43;;;0.50;65.20;;;;;;5039061;27;114304;-84
2024/01/14 09:27:50;;;;;;;11.00;7.13;;;0.50;65.10;;;;;;5032718;27;114231;-83
2024/01/14 09:30:17;;;;;;;12.65;6.35;;;0.60;65.00;;;;;;5018414;28;115034;-83
2024/01/14 09:32:48;;;;;;;11.15;6.72;;;0.60;65.00;;;;;;4992370;28;117457;-83
2024/01/14 09:35:16;;;;;;;10.23;6.45;;;0.60;65.00;;;;;;5009549;28;114370;-82
2024/01/14 09:37:45;;;;;;;12.50;6.97;;;0.60;65.00;;;;;;5026482;28;114405;-83
2024/01/14 09:40:16;;;;;;;11.85;6.40;;;0.60;64.90;;;;;;5009447;27;116312;-84
2024/01/14 09:42:47;;;;;;;11.30;6.47;;;0.70;64.80;;;;;;5016322;27;114419;-84
2024/01/14 09:45:17;;;;;;;14.05;7.22;;;0.70;64.80;;;;;;5016839;27;114642;-81
2024/01/14 09:47:53;;;;;;;11.88;6.88;;;0.70;64.70;;;;;;5019138;27;114421;-85
2024/01/14 09:50:21;;;;;;;12.80;6.75;;;0.70;64.70;;;;;;5021637;28;117098;-82
2024/01/14 09:52:49;;;;;;;11.90;7.18;;;0.80;64.80;;;;;;4995657;28;114743;-81
2024/01/14 09:55:17;;;;;;;12.00;6.90;;;0.90;64.60;;;;;;5008990;27;117134;-82
2024/01/14 09:57:48;;;;;;;13.05;7.28;;;0.90;64.60;;;;;;5051157;27;114376;-82
2024/01/14 10:00:15;;;;;;;13.48;7.35;;;0.90;64.50;;;;;;5016252;27;115155;-83
2024/01/14 10:02:43;;;;;;;13.48;7.85;;;0.90;64.50;;;;;;5015358;27;114609;-83
2024/01/14 10:05:10;;;;;;;14.25;8.52;;;1.00;64.50;;;;;;5030521;27;114484;-83
2024/01/14 10:07:39;;;;;;;12.60;7.15;;;1.10;64.40;;;;;;5049951;27;114913;-83
2024/01/14 10:10:07;;;;;;;12.68;8.15;;;1.00;64.30;;;;;;5032722;27;115266;-82
2024/01/14 10:12:41;;;;;;;18.42;7.35;;;1.00;64.30;;;;;;5037334;27;114547;-82
2024/01/14 10:15:11;;;;;;;12.07;7.75;;;1.10;64.20;;;;;;4993531;28;114412;-83
2024/01/14 10:17:39;;;;;;;12.93;7.85;;;1.10;64.10;;;;;;5024885;28;114615;-83
2024/01/14 10:20:07;;;;;;;11.90;6.78;;;1.10;64.10;;;;;;5019145;27;115128;-83
2024/01/14 10:22:35;;;;;;;14.73;8.32;;;1.10;64.10;;;;;;5050569;27;114681;-83
2024/01/14 10:25:03;;;;;;;13.85;7.75;;;1.10;64.10;;;;;;4982662;27;114266;-82
2024/01/14 10:27:33;;;;;;;13.70;7.75;;;1.10;64.10;;;;;;5033056;27;114806;-83
2024/01/14 10:30:10;;;;;;;13.35;8.00;;;1.10;64.10;;;;;;5034778;27;115573;-83
2024/01/14 10:32:43;;;;;;;14.43;7.77;;;1.10;64.20;;;;;;5049582;27;114641;-84
2024/01/14 10:35:31;;;;;;;11.57;6.78;;;1.10;64.20;;;;;;5056132;27;114447;-83
2024/01/14 10:38:01;;;;;;;13.38;7.88;;;1.20;64.10;;;;;;5052391;27;114234;-82
2024/01/14 10:40:28;;;;;;;11.70;7.18;;;1.20;64.00;;;;;;5003286;28;115053;-83
2024/01/14 10:42:56;;;;;;;13.27;7.18;;;1.20;64.00;;;;;;5028778;28;114558;-83
2024/01/14 10:45:23;;;;;;;11.93;6.93;;;1.20;63.90;;;;;;5003444;28;114728;-83
2024/01/14 10:47:56;;;;;;;11.55;6.63;;;1.20;64.00;;;;;;5026125;28;115252;-82
2024/01/14 10:50:26;;;;;;;12.38;7.30;;;1.20;63.90;;;;;;5008470;28;115415;-83
2024/01/14 10:53:11;;;;;;;11.77;6.68;;;1.20;63.90;;;;;;5015808;28;115329;-83
2024/01/14 10:55:43;;;;;;;11.65;6.45;;;1.20;63.80;;;;;;4992075;28;114259;-82
2024/01/14 10:58:25;;;;;;;12.60;6.68;;;1.20;63.90;;;;;;4992441;28;114240;-83
2024/01/14 11:00:57;;;;;;;11.52;6.40;;;1.20;63.90;;;;;;4974289;28;118482;-83
2024/01/14 11:03:25;;;;;;;11.38;6.10;;;1.20;63.90;;;;;;5015064;28;115081;-82
2024/01/14 11:05:52;;;;;;;22.60;9.07;;;1.20;63.90;;;;;;5011548;28;114532;-82
2024/01/14 11:08:21;;;;;;;14.40;7.97;;;1.20;63.90;;;;;;4983744;28;114438;-83
2024/01/14 11:10:54;;;;;;;12.13;6.95;;;1.30;63.90;;;;;;4991521;28;115556;-83
2024/01/14 11:13:56;;;;;;;11.23;6.50;;;1.40;63.80;;;;;;4997934;28;118357;-83
2024/01/14 11:16:38;;;;;;;22.73;11.82;;;1.40;63.80;;;;;;4963186;28;114380;-84
2024/01/14 11:19:10;;;;;;;13.93;7.13;;;1.40;63.70;;;;;;5012378;28;114305;-84
2024/01/14 11:22:20;;;;;;;12.40;7.15;;;1.40;63.70;;;;;;5003357;28;115124;-83
2024/01/14 11:25:03;;;;;;;11.75;6.43;;;1.40;63.50;;;;;;5025794;28;117190;-84
2024/01/14 11:27:32;;;;;;;13.10;6.28;;;1.30;63.40;;;;;;5010848;28;114509;-83
2024/01/14 11:30:00;;;;;;;11.38;6.65;;;1.20;63.60;;;;;;5010646;28;114446;-83
2024/01/14 11:32:28;;;;;;;11.85;7.10;;;1.20;63.70;;;;;;5010518;28;116517;-83
2024/01/14 11:34:58;;;;;;;13.90;7.63;;;1.20;63.80;;;;;;5010750;28;114967;-84
2024/01/14 11:37:48;;;;;;;13.57;7.85;;;1.20;63.90;;;;;;4991405;28;114294;-83
2024/01/14 11:40:26;;;;;;;14.20;7.35;;;1.20;63.90;;;;;;5010534;28;114489;-83
2024/01/14 11:43:06;;;;;;;9.52;6.30;;;1.20;64.10;;;;;;5011480;28;115100;-84
2024/01/14 11:45:35;;;;;;;10.98;6.80;;;1.20;64.10;;;;;;5010880;28;114755;-85
2024/01/14 11:48:04;;;;;;;12.75;7.25;;;1.20;64.10;;;;;;4977887;28;114471;-83
2024/01/14 11:50:33;;;;;;;14.38;8.48;;;1.30;64.00;;;;;;4996402;28;114586;-83
2024/01/14 11:53:07;;;;;;;13.93;8.35;;;1.40;63.90;;;;;;5027924;28;116401;-83
2024/01/14 11:55:35;;;;;;;14.82;7.90;;;1.50;63.80;;;;;;5010111;28;114633;-83
2024/01/14 11:58:17;;;;;;;12.45;7.00;;;1.60;63.80;;;;;;4984324;28;117409;-83
2024/01/14 12:00:47;;;;;;;13.13;6.55;;;1.70;63.60;;;;;;5003319;28;114480;-82
2024/01/14 12:03:15;;;;;;;13.13;7.80;;;1.70;63.60;;;;;;5009005;28;115129;-84
2024/01/14 12:05:44;;;;;;;13.00;7.38;;;1.80;63.50;;;;;;5029235;27;116856;-85
2024/01/14 12:08:28;;;;;;;12.70;6.93;;;2.00;63.20;;;;;;5028230;28;114493;-84
2024/01/14 12:11:01;;;;;;;14.85;7.35;;;1.90;62.90;;;;;;5029948;28;114285;-83
2024/01/14 12:13:28;;;;;;;14.93;8.02;;;2.00;62.60;;;;;;5005595;28;116295;-83
2024/01/14 12:15:56;;;;;;;12.45;6.88;;;1.80;62.70;;;;;;4861589;28;127759;-82
2024/01/14 12:18:40;;;;;;;10.93;6.97;;;1.80;62.50;;;;;;4968628;28;114454;-83
2024/01/14 12:21:15;;;;;;;12.27;7.05;;;1.80;62.50;;;;;;4933729;28;114675;-83
2024/01/14 12:23:57;;;;;;;13.00;7.80;;;1.70;62.50;;;;;;4932965;28;116494;-84
2024/01/14 12:26:24;;;;;;;13.73;7.63;;;1.70;62.60;;;;;;4948354;28;114615;-83
2024/01/14 12:28:52;;;;;;;13.48;8.60;;;1.70;62.70;;;;;;4969081;28;114100;-83
2024/01/14 12:31:21;;;;;;;13.35;7.63;;;1.70;62.70;;;;;;4970112;28;114703;-83
2024/01/14 12:33:54;;;;;;;13.57;8.25;;;1.60;62.70;;;;;;4968521;28;114433;-84
2024/01/14 12:36:22;;;;;;;14.38;7.95;;;1.60;62.80;;;;;;4967336;28;114518;-83
2024/01/14 12:39:04;;;;;;;12.73;6.80;;;1.60;63.00;;;;;;4966904;28;114530;-84